sensor_id;sensor_type;location;lat;lon;timestamp;temperature;humidity
32215;DHT22;18708;53.124;23.190;2023-03-23T00:01:13;9.50;99.90
32215;DHT22;18708;53.124;23.190;2023-03-23T00:03:40;9.50;90.20
32215;DHT22;18708;53.124;23.190;2023-03-23T00:06:07;9.50;44.00
32215;DHT22;18708;53.124;23.190;2023-03-23T00:08:38;9.50;63.80
32215;DHT22;18708;53.124;23.190;2023-03-23T00:11:14;9.50;99.90
32215;DHT22;18708;53.124;23.190;2023-03-23T00:13:45;9.50;99.90
32215;DHT22;18708;53.124;23.190;2023-03-23T00:16:11;9.50;99.90
32215;DHT22;18708;53.124;23.190;2023-03-23T00:18:45;9.50;99.90
32215;DHT22;18708;53.124;23.190;2023-03-23T00:21:13;9.50;99.90
32215;DHT22;18708;53.124;23.190;2023-03-23T00:23:39;9.50;80.10
32215;DHT22;18708;53.124;23.190;2023-03-23T00:26:05;9.50;99.90
32215;DHT22;18708;53.124;23.190;2023-03-23T00:28:34;9.50;99.90
32215;DHT22;18708;53.124;23.190;2023-03-23T00:31:02;9.40;99.90
32215;DHT22;18708;53.124;23.190;2023-03-23T00:33:31;9.40;99.90
32215;DHT22;18708;53.124;23.190;2023-03-23T00:35:59;9.40;99.90
32215;DHT22;18708;53.124;23.190;2023-03-23T00:38:25;9.30;99.90
32215;DHT22;18708;53.124;23.190;2023-03-23T00:40:51;9.30;99.90
32215;DHT22;18708;53.124;23.190;2023-03-23T00:43:18;9.30;99.90
32215;DHT22;18708;53.124;23.190;2023-03-23T00:45:45;9.30;99.90
32215;DHT22;18708;53.124;23.190;2023-03-23T00:48:15;9.30;99.90
32215;DHT22;18708;53.124;23.190;2023-03-23T00:50:40;9.30;99.90
32215;DHT22;18708;53.124;23.190;2023-03-23T00:53:06;9.20;99.90
32215;DHT22;18708;53.124;23.190;2023-03-23T00:55:33;9.10;1.00
32215;DHT22;18708;53.124;23.190;2023-03-23T00:57:59;9.20;1.00
32215;DHT22;18708;53.124;23.190;2023-03-23T01:00:25;9.10;1.00
32215;DHT22;18708;53.124;23.190;2023-03-23T01:02:53;9.10;1.00
32215;DHT22;18708;53.124;23.190;2023-03-23T01:05:19;9.00;1.00
32215;DHT22;18708;53.124;23.190;2023-03-23T01:07:46;9.00;1.00
32215;DHT22;18708;53.124;23.190;2023-03-23T01:10:12;9.00;1.00
32215;DHT22;18708;53.124;23.190;2023-03-23T01:12:42;9.00;1.00
32215;DHT22;18708;53.124;23.190;2023-03-23T01:15:09;8.90;1.00
32215;DHT22;18708;53.124;23.190;2023-03-23T01:17:34;8.90;1.00
32215;DHT22;18708;53.124;23.190;2023-03-23T01:20:00;8.90;1.00
32215;DHT22;18708;53.124;23.190;2023-03-23T01:22:26;8.90;80.10
32215;DHT22;18708;53.124;23.190;2023-03-23T01:24:51;8.80;99.90
32215;DHT22;18708;53.124;23.190;2023-03-23T01:27:17;8.80;1.00
32215;DHT22;18708;53.124;23.190;2023-03-23T01:29:43;8.70;99.90
32215;DHT22;18708;53.124;23.190;2023-03-23T01:32:08;8.70;99.90
32215;DHT22;18708;53.124;23.190;2023-03-23T01:34:34;8.70;99.90
32215;DHT22;18708;53.124;23.190;2023-03-23T01:37:00;8.70;99.90
32215;DHT22;18708;53.124;23.190;2023-03-23T01:39:26;8.70;99.90
32215;DHT22;18708;53.124;23.190;2023-03-23T01:41:51;8.60;1.00
32215;DHT22;18708;53.124;23.190;2023-03-23T01:46:44;8.60;1.00
32215;DHT22;18708;53.124;23.190;2023-03-23T01:49:17;8.60;1.00
32215;DHT22;18708;53.124;23.190;2023-03-23T01:51:52;8.60;1.00
32215;DHT22;18708;53.124;23.190;2023-03-23T01:54:20;8.60;1.00
32215;DHT22;18708;53.124;23.190;2023-03-23T01:57:10;8.60;1.00
32215;DHT22;18708;53.124;23.190;2023-03-23T01:59:35;8.60;1.00
32215;DHT22;18708;53.124;23.190;2023-03-23T02:02:02;8.70;1.00
32215;DHT22;18708;53.124;23.190;2023-03-23T02:04:29;8.60;1.00
32215;DHT22;18708;53.124;23.190;2023-03-23T02:06:56;8.60;1.00
32215;DHT22;18708;53.124;23.190;2023-03-23T02:09:26;8.60;1.00
32215;DHT22;18708;53.124;23.190;2023-03-23T02:11:53;8.60;1.00
32215;DHT22;18708;53.124;23.190;2023-03-23T02:14:19;8.60;1.00
32215;DHT22;18708;53.124;23.190;2023-03-23T02:20:21;8.70;1.00
32215;DHT22;18708;53.124;23.190;2023-03-23T02:37:46;8.60;1.00
32215;DHT22;18708;53.124;23.190;2023-03-23T02:40:28;8.60;1.00
32215;DHT22;18708;53.124;23.190;2023-03-23T02:42:57;8.50;1.00
32215;DHT22;18708;53.124;23.190;2023-03-23T02:45:27;8.50;1.00
32215;DHT22;18708;53.124;23.190;2023-03-23T02:47:54;8.40;1.00
32215;DHT22;18708;53.124;23.190;2023-03-23T02:50:23;8.40;1.00
32215;DHT22;18708;53.124;23.190;2023-03-23T02:52:50;8.40;1.00
32215;DHT22;18708;53.124;23.190;2023-03-23T02:55:19;8.40;1.00
32215;DHT22;18708;53.124;23.190;2023-03-23T02:57:46;8.40;1.00
32215;DHT22;18708;53.124;23.190;2023-03-23T03:00:15;8.30;35.40
32215;DHT22;18708;53.124;23.190;2023-03-23T03:02:44;8.30;1.00
32215;DHT22;18708;53.124;23.190;2023-03-23T03:05:44;8.20;99.90
32215;DHT22;18708;53.124;23.190;2023-03-23T03:08:27;8.30;99.90
32215;DHT22;18708;53.124;23.190;2023-03-23T03:11:02;8.30;99.90
32215;DHT22;18708;53.124;23.190;2023-03-23T03:13:39;8.40;99.90
32215;DHT22;18708;53.124;23.190;2023-03-23T03:16:35;8.30;99.90
32215;DHT22;18708;53.124;23.190;2023-03-23T03:21:39;8.30;99.90
32215;DHT22;18708;53.124;23.190;2023-03-23T03:24:08;8.30;99.90
32215;DHT22;18708;53.124;23.190;2023-03-23T03:26:39;8.30;99.90
32215;DHT22;18708;53.124;23.190;2023-03-23T03:29:06;8.20;99.90
32215;DHT22;18708;53.124;23.190;2023-03-23T03:31:36;8.20;99.90
32215;DHT22;18708;53.124;23.190;2023-03-23T03:34:06;8.20;99.90
32215;DHT22;18708;53.124;23.190;2023-03-23T03:36:35;8.10;99.90
32215;DHT22;18708;53.124;23.190;2023-03-23T03:39:07;8.10;99.90
32215;DHT22;18708;53.124;23.190;2023-03-23T03:41:34;8.10;1.00
32215;DHT22;18708;53.124;23.190;2023-03-23T03:44:01;8.00;1.00
32215;DHT22;18708;53.124;23.190;2023-03-23T03:46:27;8.00;1.00
32215;DHT22;18708;53.124;23.190;2023-03-23T03:48:55;8.10;1.00
32215;DHT22;18708;53.124;23.190;2023-03-23T03:51:25;8.10;1.00
32215;DHT22;18708;53.124;23.190;2023-03-23T03:53:51;8.10;1.00
32215;DHT22;18708;53.124;23.190;2023-03-23T03:56:17;8.10;1.00
32215;DHT22;18708;53.124;23.190;2023-03-23T03:58:43;8.10;1.00
32215;DHT22;18708;53.124;23.190;2023-03-23T04:01:10;8.10;1.00
32215;DHT22;18708;53.124;23.190;2023-03-23T04:03:36;8.20;1.00
32215;DHT22;18708;53.124;23.190;2023-03-23T04:06:03;8.20;1.00
32215;DHT22;18708;53.124;23.190;2023-03-23T04:08:29;8.20;1.00
32215;DHT22;18708;53.124;23.190;2023-03-23T04:10:55;8.20;1.00
32215;DHT22;18708;53.124;23.190;2023-03-23T04:13:22;8.20;1.00
32215;DHT22;18708;53.124;23.190;2023-03-23T04:15:48;8.20;99.90
32215;DHT22;18708;53.124;23.190;2023-03-23T04:18:15;8.20;1.00
32215;DHT22;18708;53.124;23.190;2023-03-23T04:20:44;8.20;1.00
32215;DHT22;18708;53.124;23.190;2023-03-23T04:23:13;8.20;1.00
32215;DHT22;18708;53.124;23.190;2023-03-23T04:25:38;8.20;1.00
32215;DHT22;18708;53.124;23.190;2023-03-23T04:28:07;8.20;1.00
32215;DHT22;18708;53.124;23.190;2023-03-23T04:30:36;8.20;1.00
32215;DHT22;18708;53.124;23.190;2023-03-23T04:33:02;8.20;1.00
32215;DHT22;18708;53.124;23.190;2023-03-23T04:35:28;8.10;1.00
32215;DHT22;18708;53.124;23.190;2023-03-23T04:37:54;8.10;1.00
32215;DHT22;18708;53.124;23.190;2023-03-23T04:40:21;8.10;1.00
32215;DHT22;18708;53.124;23.190;2023-03-23T04:42:47;8.10;1.00
32215;DHT22;18708;53.124;23.190;2023-03-23T04:45:17;8.20;1.00
32215;DHT22;18708;53.124;23.190;2023-03-23T04:47:50;8.20;1.00
32215;DHT22;18708;53.124;23.190;2023-03-23T04:50:20;8.20;1.00
32215;DHT22;18708;53.124;23.190;2023-03-23T04:52:47;8.20;1.00
32215;DHT22;18708;53.124;23.190;2023-03-23T04:55:13;8.20;1.00
32215;DHT22;18708;53.124;23.190;2023-03-23T04:57:39;8.20;1.00
32215;DHT22;18708;53.124;23.190;2023-03-23T05:00:06;8.20;1.00
32215;DHT22;18708;53.124;23.190;2023-03-23T05:02:38;8.30;99.90
32215;DHT22;18708;53.124;23.190;2023-03-23T05:05:11;8.40;99.90
32215;DHT22;18708;53.124;23.190;2023-03-23T05:07:41;8.40;99.90
32215;DHT22;18708;53.124;23.190;2023-03-23T05:10:08;8.40;99.90
32215;DHT22;18708;53.124;23.190;2023-03-23T05:12:35;8.40;99.90
32215;DHT22;18708;53.124;23.190;2023-03-23T05:15:01;8.50;99.90
32215;DHT22;18708;53.124;23.190;2023-03-23T05:17:27;8.50;99.90
32215;DHT22;18708;53.124;23.190;2023-03-23T05:19:55;8.50;99.90
32215;DHT22;18708;53.124;23.190;2023-03-23T05:22:22;8.50;99.90
32215;DHT22;18708;53.124;23.190;2023-03-23T05:24:49;8.60;99.90
32215;DHT22;18708;53.124;23.190;2023-03-23T05:27:17;8.60;84.70
32215;DHT22;18708;53.124;23.190;2023-03-23T05:29:45;8.60;26.30
32215;DHT22;18708;53.124;23.190;2023-03-23T05:32:15;8.70;1.00
32215;DHT22;18708;53.124;23.190;2023-03-23T05:34:41;8.70;1.00
32215;DHT22;18708;53.124;23.190;2023-03-23T05:37:09;8.80;1.00
32215;DHT22;18708;53.124;23.190;2023-03-23T05:39:35;8.90;1.00
32215;DHT22;18708;53.124;23.190;2023-03-23T05:42:02;9.00;1.00
32215;DHT22;18708;53.124;23.190;2023-03-23T05:44:28;9.00;1.00
32215;DHT22;18708;53.124;23.190;2023-03-23T05:46:55;9.20;1.00
32215;DHT22;18708;53.124;23.190;2023-03-23T05:49:21;9.30;1.00
32215;DHT22;18708;53.124;23.190;2023-03-23T05:51:47;9.40;1.00
32215;DHT22;18708;53.124;23.190;2023-03-23T05:54:15;9.50;99.90
32215;DHT22;18708;53.124;23.190;2023-03-23T05:56:41;9.50;99.90
32215;DHT22;18708;53.124;23.190;2023-03-23T05:59:09;9.60;99.90
32215;DHT22;18708;53.124;23.190;2023-03-23T06:01:36;9.60;99.90
32215;DHT22;18708;53.124;23.190;2023-03-23T06:04:05;9.70;99.90
32215;DHT22;18708;53.124;23.190;2023-03-23T06:06:30;9.70;99.90
32215;DHT22;18708;53.124;23.190;2023-03-23T06:08:57;9.70;92.80
32215;DHT22;18708;53.124;23.190;2023-03-23T06:11:24;9.70;93.60
32215;DHT22;18708;53.124;23.190;2023-03-23T06:13:51;9.80;68.10
32215;DHT22;18708;53.124;23.190;2023-03-23T06:16:17;9.80;1.00
32215;DHT22;18708;53.124;23.190;2023-03-23T06:18:45;9.80;42.60
32215;DHT22;18708;53.124;23.190;2023-03-23T06:21:12;9.80;1.00
32215;DHT22;18708;53.124;23.190;2023-03-23T06:23:38;9.90;1.00
32215;DHT22;18708;53.124;23.190;2023-03-23T06:26:06;10.00;1.00
32215;DHT22;18708;53.124;23.190;2023-03-23T06:28:33;10.00;1.00
32215;DHT22;18708;53.124;23.190;2023-03-23T06:31:03;10.10;1.00
32215;DHT22;18708;53.124;23.190;2023-03-23T06:33:32;10.20;1.00
32215;DHT22;18708;53.124;23.190;2023-03-23T06:35:59;10.10;1.00
32215;DHT22;18708;53.124;23.190;2023-03-23T06:38:25;10.20;1.00
32215;DHT22;18708;53.124;23.190;2023-03-23T06:40:54;10.30;1.00
32215;DHT22;18708;53.124;23.190;2023-03-23T06:43:21;10.30;1.00
32215;DHT22;18708;53.124;23.190;2023-03-23T06:45:47;10.40;1.00
32215;DHT22;18708;53.124;23.190;2023-03-23T06:48:13;10.40;1.00
32215;DHT22;18708;53.124;23.190;2023-03-23T06:50:42;10.50;1.00
32215;DHT22;18708;53.124;23.190;2023-03-23T06:53:09;10.60;1.00
32215;DHT22;18708;53.124;23.190;2023-03-23T06:55:34;10.70;1.00
32215;DHT22;18708;53.124;23.190;2023-03-23T06:58:01;10.70;1.00
32215;DHT22;18708;53.124;23.190;2023-03-23T07:00:26;10.80;1.00
32215;DHT22;18708;53.124;23.190;2023-03-23T07:02:52;10.80;1.00
32215;DHT22;18708;53.124;23.190;2023-03-23T07:05:18;10.80;1.00
32215;DHT22;18708;53.124;23.190;2023-03-23T07:07:45;10.90;1.00
32215;DHT22;18708;53.124;23.190;2023-03-23T07:10:10;11.00;1.00
32215;DHT22;18708;53.124;23.190;2023-03-23T07:12:36;11.10;1.00
32215;DHT22;18708;53.124;23.190;2023-03-23T07:15:06;11.20;1.00
32215;DHT22;18708;53.124;23.190;2023-03-23T07:17:34;11.30;1.00
32215;DHT22;18708;53.124;23.190;2023-03-23T07:20:00;11.50;99.90
32215;DHT22;18708;53.124;23.190;2023-03-23T07:22:26;11.60;99.90
32215;DHT22;18708;53.124;23.190;2023-03-23T07:24:51;11.60;99.90
32215;DHT22;18708;53.124;23.190;2023-03-23T07:27:17;11.70;99.90
32215;DHT22;18708;53.124;23.190;2023-03-23T07:29:43;11.70;99.90
32215;DHT22;18708;53.124;23.190;2023-03-23T07:32:11;11.70;99.90
32215;DHT22;18708;53.124;23.190;2023-03-23T07:34:38;11.80;99.90
32215;DHT22;18708;53.124;23.190;2023-03-23T07:37:04;11.90;99.90
32215;DHT22;18708;53.124;23.190;2023-03-23T07:39:30;12.00;66.90
32215;DHT22;18708;53.124;23.190;2023-03-23T07:41:56;12.00;14.80
32215;DHT22;18708;53.124;23.190;2023-03-23T07:44:22;12.30;17.80
32215;DHT22;18708;53.124;23.190;2023-03-23T07:46:48;12.70;1.00
32215;DHT22;18708;53.124;23.190;2023-03-23T07:49:14;13.20;1.00
32215;DHT22;18708;53.124;23.190;2023-03-23T07:51:40;13.60;1.00
32215;DHT22;18708;53.124;23.190;2023-03-23T07:54:06;14.70;1.00
32215;DHT22;18708;53.124;23.190;2023-03-23T07:56:35;15.10;99.90
32215;DHT22;18708;53.124;23.190;2023-03-23T07:59:02;15.40;99.90
32215;DHT22;18708;53.124;23.190;2023-03-23T08:01:30;15.40;1.00
32215;DHT22;18708;53.124;23.190;2023-03-23T08:03:55;15.80;1.00
32215;DHT22;18708;53.124;23.190;2023-03-23T08:06:23;16.00;1.00
32215;DHT22;18708;53.124;23.190;2023-03-23T08:08:49;16.80;1.00
32215;DHT22;18708;53.124;23.190;2023-03-23T08:11:16;17.00;99.90
32215;DHT22;18708;53.124;23.190;2023-03-23T08:13:42;16.60;99.90
32215;DHT22;18708;53.124;23.190;2023-03-23T08:16:09;16.60;99.90
32215;DHT22;18708;53.124;23.190;2023-03-23T08:18:35;17.00;99.90
32215;DHT22;18708;53.124;23.190;2023-03-23T08:21:06;17.00;1.00
32215;DHT22;18708;53.124;23.190;2023-03-23T08:23:34;17.00;1.00
32215;DHT22;18708;53.124;23.190;2023-03-23T08:26:05;18.60;1.00
32215;DHT22;18708;53.124;23.190;2023-03-23T08:28:35;18.60;1.00
32215;DHT22;18708;53.124;23.190;2023-03-23T08:31:09;18.60;1.00
32215;DHT22;18708;53.124;23.190;2023-03-23T08:33:36;18.60;1.00
32215;DHT22;18708;53.124;23.190;2023-03-23T08:36:04;18.60;1.00
32215;DHT22;18708;53.124;23.190;2023-03-23T08:38:30;19.40;1.00
32215;DHT22;18708;53.124;23.190;2023-03-23T08:41:00;19.30;99.90
32215;DHT22;18708;53.124;23.190;2023-03-23T08:43:28;19.10;99.90
32215;DHT22;18708;53.124;23.190;2023-03-23T08:45:54;19.90;99.90
32215;DHT22;18708;53.124;23.190;2023-03-23T08:48:20;19.50;99.90
32215;DHT22;18708;53.124;23.190;2023-03-23T08:50:46;19.90;99.90
32215;DHT22;18708;53.124;23.190;2023-03-23T08:53:12;20.30;88.00
32215;DHT22;18708;53.124;23.190;2023-03-23T08:55:38;19.60;1.00
32215;DHT22;18708;53.124;23.190;2023-03-23T08:58:05;19.50;6.30
32215;DHT22;18708;53.124;23.190;2023-03-23T09:00:31;20.20;1.00
32215;DHT22;18708;53.124;23.190;2023-03-23T09:03:00;19.40;1.00
32215;DHT22;18708;53.124;23.190;2023-03-23T09:05:28;19.90;1.00
32215;DHT22;18708;53.124;23.190;2023-03-23T09:07:58;20.10;1.00
32215;DHT22;18708;53.124;23.190;2023-03-23T09:10:28;20.90;1.00
32215;DHT22;18708;53.124;23.190;2023-03-23T09:12:58;20.10;1.00
32215;DHT22;18708;53.124;23.190;2023-03-23T09:15:24;20.10;1.00
32215;DHT22;18708;53.124;23.190;2023-03-23T09:17:51;21.30;1.00
32215;DHT22;18708;53.124;23.190;2023-03-23T09:20:20;21.90;1.00
32215;DHT22;18708;53.124;23.190;2023-03-23T09:22:49;22.20;1.00
32215;DHT22;18708;53.124;23.190;2023-03-23T09:25:17;20.90;1.00
32215;DHT22;18708;53.124;23.190;2023-03-23T09:27:48;21.10;1.00
32215;DHT22;18708;53.124;23.190;2023-03-23T09:30:17;21.60;1.00
32215;DHT22;18708;53.124;23.190;2023-03-23T09:32:45;21.50;1.00
32215;DHT22;18708;53.124;23.190;2023-03-23T09:35:11;20.90;1.00
32215;DHT22;18708;53.124;23.190;2023-03-23T09:37:39;20.80;1.00
32215;DHT22;18708;53.124;23.190;2023-03-23T09:40:09;21.90;1.00
32215;DHT22;18708;53.124;23.190;2023-03-23T09:54:38;22.50;99.90
32215;DHT22;18708;53.124;23.190;2023-03-23T09:57:16;23.20;99.90
32215;DHT22;18708;53.124;23.190;2023-03-23T09:59:53;24.00;99.90
32215;DHT22;18708;53.124;23.190;2023-03-23T10:02:27;22.60;99.90
32215;DHT22;18708;53.124;23.190;2023-03-23T10:04:56;22.20;99.90
32215;DHT22;18708;53.124;23.190;2023-03-23T10:07:26;22.90;99.90
32215;DHT22;18708;53.124;23.190;2023-03-23T10:09:56;22.70;99.90
32215;DHT22;18708;53.124;23.190;2023-03-23T10:12:49;22.50;99.90
32215;DHT22;18708;53.124;23.190;2023-03-23T10:15:21;22.40;99.90
32215;DHT22;18708;53.124;23.190;2023-03-23T10:18:04;22.80;99.90
32215;DHT22;18708;53.124;23.190;2023-03-23T10:20:43;23.40;99.90
32215;DHT22;18708;53.124;23.190;2023-03-23T10:28:52;22.90;99.90
32215;DHT22;18708;53.124;23.190;2023-03-23T10:31:24;22.80;99.90
32215;DHT22;18708;53.124;23.190;2023-03-23T10:33:53;24.00;99.90
32215;DHT22;18708;53.124;23.190;2023-03-23T10:36:27;23.00;99.90
32215;DHT22;18708;53.124;23.190;2023-03-23T10:41:31;21.50;91.80
32215;DHT22;18708;53.124;23.190;2023-03-23T10:43:57;21.50;99.90
32215;DHT22;18708;53.124;23.190;2023-03-23T10:48:59;22.30;74.70
32215;DHT22;18708;53.124;23.190;2023-03-23T10:51:36;22.40;75.50
32215;DHT22;18708;53.124;23.190;2023-03-23T10:54:03;21.60;13.80
32215;DHT22;18708;53.124;23.190;2023-03-23T10:56:41;21.70;1.00
32215;DHT22;18708;53.124;23.190;2023-03-23T10:59:33;21.80;1.00
32215;DHT22;18708;53.124;23.190;2023-03-23T11:02:01;21.10;19.70
32215;DHT22;18708;53.124;23.190;2023-03-23T11:04:31;20.40;1.00
32215;DHT22;18708;53.124;23.190;2023-03-23T11:07:00;20.00;81.60
32215;DHT22;18708;53.124;23.190;2023-03-23T11:09:38;20.10;99.90
32215;DHT22;18708;53.124;23.190;2023-03-23T11:12:04;20.10;99.90
32215;DHT22;18708;53.124;23.190;2023-03-23T11:14:41;19.30;97.10
32215;DHT22;18708;53.124;23.190;2023-03-23T11:17:21;19.30;99.80
32215;DHT22;18708;53.124;23.190;2023-03-23T11:19:48;19.10;81.40
32215;DHT22;18708;53.124;23.190;2023-03-23T11:22:24;18.90;99.90
32215;DHT22;18708;53.124;23.190;2023-03-23T11:24:56;18.90;95.00
32215;DHT22;18708;53.124;23.190;2023-03-23T11:27:25;18.80;99.90
32215;DHT22;18708;53.124;23.190;2023-03-23T11:29:54;18.50;53.80
32215;DHT22;18708;53.124;23.190;2023-03-23T11:32:25;18.60;72.80
32215;DHT22;18708;53.124;23.190;2023-03-23T11:34:56;18.80;99.90
32215;DHT22;18708;53.124;23.190;2023-03-23T11:37:33;18.60;99.90
32215;DHT22;18708;53.124;23.190;2023-03-23T11:45:22;18.20;99.90
32215;DHT22;18708;53.124;23.190;2023-03-23T11:48:06;18.30;99.90
32215;DHT22;18708;53.124;23.190;2023-03-23T11:50:51;18.20;99.90
32215;DHT22;18708;53.124;23.190;2023-03-23T11:53:47;18.20;85.00
32215;DHT22;18708;53.124;23.190;2023-03-23T11:56:24;18.30;60.80
32215;DHT22;18708;53.124;23.190;2023-03-23T11:58:52;18.20;99.90
32215;DHT22;18708;53.124;23.190;2023-03-23T12:01:41;18.30;99.90
32215;DHT22;18708;53.124;23.190;2023-03-23T12:09:54;18.70;99.90
32215;DHT22;18708;53.124;23.190;2023-03-23T12:23:46;18.70;99.90
32215;DHT22;18708;53.124;23.190;2023-03-23T12:37:17;18.30;77.70
32215;DHT22;18708;53.124;23.190;2023-03-23T12:43:12;18.30;99.90
32215;DHT22;18708;53.124;23.190;2023-03-23T12:46:18;18.50;99.90
32215;DHT22;18708;53.124;23.190;2023-03-23T12:54:27;18.10;99.90
32215;DHT22;18708;53.124;23.190;2023-03-23T13:00:23;18.30;99.90
32215;DHT22;18708;53.124;23.190;2023-03-23T13:06:08;19.50;99.90
32215;DHT22;18708;53.124;23.190;2023-03-23T13:08:53;20.20;99.90
32215;DHT22;18708;53.124;23.190;2023-03-23T13:11:28;20.20;99.90
32215;DHT22;18708;53.124;23.190;2023-03-23T13:14:07;20.20;99.90
32215;DHT22;18708;53.124;23.190;2023-03-23T13:19:44;20.30;99.90
32215;DHT22;18708;53.124;23.190;2023-03-23T13:22:14;20.60;99.90
32215;DHT22;18708;53.124;23.190;2023-03-23T13:24:53;20.40;99.90
32215;DHT22;18708;53.124;23.190;2023-03-23T13:27:24;20.60;99.90
32215;DHT22;18708;53.124;23.190;2023-03-23T13:29:56;19.80;99.90
32215;DHT22;18708;53.124;23.190;2023-03-23T13:32:35;19.50;99.90
32215;DHT22;18708;53.124;23.190;2023-03-23T13:35:04;19.40;99.90
32215;DHT22;18708;53.124;23.190;2023-03-23T13:37:32;19.20;99.90
32215;DHT22;18708;53.124;23.190;2023-03-23T13:42:36;19.30;99.90
32215;DHT22;18708;53.124;23.190;2023-03-23T13:48:19;18.80;99.90
32215;DHT22;18708;53.124;23.190;2023-03-23T13:51:00;18.50;99.90
32215;DHT22;18708;53.124;23.190;2023-03-23T13:53:44;18.30;99.90
32215;DHT22;18708;53.124;23.190;2023-03-23T13:56:31;18.00;99.90
32215;DHT22;18708;53.124;23.190;2023-03-23T14:01:54;17.90;99.90
32215;DHT22;18708;53.124;23.190;2023-03-23T14:04:21;18.00;99.90
32215;DHT22;18708;53.124;23.190;2023-03-23T14:06:49;18.00;99.90
32215;DHT22;18708;53.124;23.190;2023-03-23T14:09:20;17.80;99.90
32215;DHT22;18708;53.124;23.190;2023-03-23T14:11:59;17.70;99.90
32215;DHT22;18708;53.124;23.190;2023-03-23T14:14:39;17.70;99.90
32215;DHT22;18708;53.124;23.190;2023-03-23T14:17:21;17.50;99.90
32215;DHT22;18708;53.124;23.190;2023-03-23T14:19:53;17.30;99.90
32215;DHT22;18708;53.124;23.190;2023-03-23T14:22:38;17.20;99.90
32215;DHT22;18708;53.124;23.190;2023-03-23T14:25:13;17.10;99.90
32215;DHT22;18708;53.124;23.190;2023-03-23T14:27:39;17.00;99.90
32215;DHT22;18708;53.124;23.190;2023-03-23T14:30:12;17.10;99.90
32215;DHT22;18708;53.124;23.190;2023-03-23T14:32:38;17.10;99.90
32215;DHT22;18708;53.124;23.190;2023-03-23T14:35:08;17.00;99.90
32215;DHT22;18708;53.124;23.190;2023-03-23T14:37:37;17.00;99.90
32215;DHT22;18708;53.124;23.190;2023-03-23T14:40:03;16.90;99.90
32215;DHT22;18708;53.124;23.190;2023-03-23T14:42:33;17.00;99.90
32215;DHT22;18708;53.124;23.190;2023-03-23T14:45:01;17.00;99.90
32215;DHT22;18708;53.124;23.190;2023-03-23T14:47:29;16.90;99.90
32215;DHT22;18708;53.124;23.190;2023-03-23T14:49:58;16.90;99.90
32215;DHT22;18708;53.124;23.190;2023-03-23T14:52:34;16.80;99.90
32215;DHT22;18708;53.124;23.190;2023-03-23T14:55:17;16.80;99.90
32215;DHT22;18708;53.124;23.190;2023-03-23T14:57:43;16.70;99.90
32215;DHT22;18708;53.124;23.190;2023-03-23T15:02:44;16.60;99.90
32215;DHT22;18708;53.124;23.190;2023-03-23T15:05:15;16.60;99.90
32215;DHT22;18708;53.124;23.190;2023-03-23T15:07:45;16.60;99.90
32215;DHT22;18708;53.124;23.190;2023-03-23T15:10:17;16.60;99.90
32215;DHT22;18708;53.124;23.190;2023-03-23T15:12:44;16.50;99.90
32215;DHT22;18708;53.124;23.190;2023-03-23T15:15:22;16.50;99.90
32215;DHT22;18708;53.124;23.190;2023-03-23T15:17:50;16.40;99.90
32215;DHT22;18708;53.124;23.190;2023-03-23T15:20:23;16.50;99.90
32215;DHT22;18708;53.124;23.190;2023-03-23T15:22:50;16.40;99.90
32215;DHT22;18708;53.124;23.190;2023-03-23T15:25:28;16.40;99.90
32215;DHT22;18708;53.124;23.190;2023-03-23T15:30:36;16.30;99.90
32215;DHT22;18708;53.124;23.190;2023-03-23T15:33:12;16.30;99.90
32215;DHT22;18708;53.124;23.190;2023-03-23T15:35:44;16.20;99.90
32215;DHT22;18708;53.124;23.190;2023-03-23T15:38:29;16.20;99.90
32215;DHT22;18708;53.124;23.190;2023-03-23T15:41:00;16.20;99.90
32215;DHT22;18708;53.124;23.190;2023-03-23T15:43:30;16.10;99.90
32215;DHT22;18708;53.124;23.190;2023-03-23T15:46:01;16.10;99.90
32215;DHT22;18708;53.124;23.190;2023-03-23T15:48:45;16.10;99.90
32215;DHT22;18708;53.124;23.190;2023-03-23T15:51:11;16.10;99.90
32215;DHT22;18708;53.124;23.190;2023-03-23T15:53:38;16.10;99.90
32215;DHT22;18708;53.124;23.190;2023-03-23T15:56:07;16.10;99.90
32215;DHT22;18708;53.124;23.190;2023-03-23T15:58:34;16.10;99.90
32215;DHT22;18708;53.124;23.190;2023-03-23T16:01:03;16.20;99.90
32215;DHT22;18708;53.124;23.190;2023-03-23T16:03:53;16.10;99.90
32215;DHT22;18708;53.124;23.190;2023-03-23T16:06:22;16.10;99.90
32215;DHT22;18708;53.124;23.190;2023-03-23T16:08:48;15.90;99.90
32215;DHT22;18708;53.124;23.190;2023-03-23T16:11:16;15.80;99.90
32215;DHT22;18708;53.124;23.190;2023-03-23T16:13:42;15.70;99.90
32215;DHT22;18708;53.124;23.190;2023-03-23T16:16:18;15.60;99.90
32215;DHT22;18708;53.124;23.190;2023-03-23T16:18:45;15.40;99.90
32215;DHT22;18708;53.124;23.190;2023-03-23T16:21:11;15.20;99.90
32215;DHT22;18708;53.124;23.190;2023-03-23T16:23:36;15.20;1.00
32215;DHT22;18708;53.124;23.190;2023-03-23T16:26:03;15.00;1.00
32215;DHT22;18708;53.124;23.190;2023-03-23T16:28:28;14.80;1.00
32215;DHT22;18708;53.124;23.190;2023-03-23T16:30:54;14.70;1.00
32215;DHT22;18708;53.124;23.190;2023-03-23T16:33:20;14.50;1.00
32215;DHT22;18708;53.124;23.190;2023-03-23T16:35:45;14.30;99.90
32215;DHT22;18708;53.124;23.190;2023-03-23T16:38:13;14.10;1.00
32215;DHT22;18708;53.124;23.190;2023-03-23T16:40:41;14.00;1.00
32215;DHT22;18708;53.124;23.190;2023-03-23T16:43:07;13.90;99.90
32215;DHT22;18708;53.124;23.190;2023-03-23T16:45:33;13.90;1.00
32215;DHT22;18708;53.124;23.190;2023-03-23T16:47:59;13.90;1.00
32215;DHT22;18708;53.124;23.190;2023-03-23T16:50:27;13.70;99.90
32215;DHT22;18708;53.124;23.190;2023-03-23T16:52:54;13.70;1.00
32215;DHT22;18708;53.124;23.190;2023-03-23T16:55:20;13.60;1.00
32215;DHT22;18708;53.124;23.190;2023-03-23T16:57:46;13.50;99.90
32215;DHT22;18708;53.124;23.190;2023-03-23T17:00:14;13.50;1.00
32215;DHT22;18708;53.124;23.190;2023-03-23T17:02:47;13.40;1.00
32215;DHT22;18708;53.124;23.190;2023-03-23T17:05:13;13.30;1.00
32215;DHT22;18708;53.124;23.190;2023-03-23T17:07:41;13.20;30.00
32215;DHT22;18708;53.124;23.190;2023-03-23T17:10:08;13.20;99.90
32215;DHT22;18708;53.124;23.190;2023-03-23T17:12:34;13.10;1.00
32215;DHT22;18708;53.124;23.190;2023-03-23T17:15:01;12.90;99.90
32215;DHT22;18708;53.124;23.190;2023-03-23T17:17:27;12.70;1.00
32215;DHT22;18708;53.124;23.190;2023-03-23T17:19:53;12.60;1.00
32215;DHT22;18708;53.124;23.190;2023-03-23T17:22:19;12.60;1.00
32215;DHT22;18708;53.124;23.190;2023-03-23T17:24:45;12.60;1.00
32215;DHT22;18708;53.124;23.190;2023-03-23T17:27:13;12.60;1.00
32215;DHT22;18708;53.124;23.190;2023-03-23T17:29:39;12.40;1.00
32215;DHT22;18708;53.124;23.190;2023-03-23T17:32:04;12.40;1.00
32215;DHT22;18708;53.124;23.190;2023-03-23T17:34:33;12.20;1.00